USTRANSCOM 7733


ETAR
Ramstein Air Force Base
Ramstein, DE
OAIX
Bagram Air Base
Bagram, AF

Activity Log

Date Flight Route Aircraft Duration
01/01/2020 CMB7733 TOLE2E RINEX ABERU UL984 OKG L984 FASAD B493 TIKNA A87 TIROM A845 DAVET P173 TAPIS B763 6h 50m
11/30/2019 CMB7733 Not Available B763 6h 28m
11/04/2019 CMB833 ETAR TOLE2E RINEX Z12 SULUS UL984 OKG L984 LAVPI L984 KOROP L984BULIG FASAD B493 TIKNA A87 AKT B363 KUNAS UTAT URG A107 INDUD A466 AMDARM875 DOSHI OAIX B763 6h 16m
10/13/2019 CMB833 ETAR TOLE2E RINEX Z12 SULUS UL984 OKG L984 LAVPI L984 VAREN L984BULIG FASAD B493 TIKNA A87 AKT B363 KUNAS UTAT URG A107 INDUD A466 AMDARM875 DOSHI OAIX B763 6h 12m
10/12/2019 CMB833 BOLK2E RINEX Z12 SULUS UL984 OKG L984 LAVPI L984 LORDU L984 BULIG FASAD B493 TIKNA A87 AKT B363 KUNAS UTAT URG A107 INDUD A466 AMDAR M875 DOSHI B763 6h 33m
10/09/2019 CMB833 TOLE2E RINEX Z12 SULUS UL984 OKG L984 LAVPI L984 NIROV L984BULIG FASAD B493 TIKNA A87 AKT B363 KUNAS UTAT URG A107 INDUD A466 AMDARM875 DOSHI B763 6h 23m
10/01/2019 CMB833 BOLK2E RINEX Z12 SULUS UL984 OKG L984 LAVPI/K0852F310 L984 GEVNA/K0852F330 L984 BULIG FASAD B493 TIKNA A87 AKT B363 KUNAS/N0453F350 UTAT/K0839F350 URG A107 INDUD A466 AMDAR/N0455F350 M875 DOSHI B763 6h 03m
09/28/2019 CMB833 ETAR TOLE2E RINEX Z12 SULUS UL984 OKG L984 LAVPI L984 NIROV L984BULIG FASAD B493 TIKNA A87 AKT B363 KUNAS UTAT URG A107 INDUD A466 AMDARM875 DOSHI OAIX B763 5h 50m
09/15/2019 CMB833 BOLK2E RINEX Z12 SULUS UL984 OKG L984 LAVPI/K0859F310 L984 BULIG FASAD/K0850F330 B493 TIKNA A87 AKT B363 KUNAS/N0460F330 UTAT/K0852F330 URG A107 INDUD A466 AMDAR/N0468F330 M875 DOSHI B763 6h 36m
07/08/2019 CMB833 Not Available B763 6h 09m
06/21/2019 CMB833 RINEX Z12 SULUS UL984 OKG L984 BULIG FASAD B493 TIKNA A87 AKT B363 KUNAS UTAT URG A107 INDUD A466 AMDAR M875 DOSHI B763 6h 33m

Route Details

Aircraft Information
Primary: Boeing 767-300BDSF
Backup: Boeing 757-200SF
Route Data
Distance: 2799nm
Sched. Duration: 7h 00m
Avg. Duration: 6h 18m (-82m)
Times Flown: 11
Recm'd Route: Not Available
Planned Altitude: 31,000ft
Origin Wx: ETAR 270111Z 23007KT 9999 OVC015 03/01 A2980 RMK AO2A SLP103 FZRANO $
Dest. Wx: OAIX 270058Z 25005KT 9999 FEW090 BKN110 OVC130 09/04 A3007 RMK AO2A SLP131 T00880038 $
Notes: USTRANSCOM CONTRACT FLIGHT

Financial History
Total Freight: 1,204,189lbs
Average Load: 109,472lbs/flt
Fuel Used: 714,337lbs
Avg. Fuel Used: 64,940lbs/flt
Fuel Expense: $571,470
Avg. Fuel Expense: $51,952
Avg. Fuel Cost: $0.80/lbs
Total Gross Income: $15,660,198
Pilot Pay: $2,549
Total Expenses: $1,691,873
Total Revenue: $13,380,200
Average Revenue: $1,423,654.40